Time;durP1;ratioP1;P1;durP2;ratioP2;P2;SDS_P1;SDS_P2;PMS_P1;PMS_P2;Temp;Humidity;BMP_temperature;BMP_pressure;BME280_temperature;BME280_humidity;BME280_pressure;Samples;Min_cycle;Max_cycle;Signal;HPM_P1;HPM_P2
2022/07/09 00:00:24;;;;;;;11.55;5.60;;;15.80;99.90;;;;;;5056963;28;20040;-84
2022/07/09 00:02:50;;;;;;;14.57;5.63;;;15.80;99.90;;;;;;5088836;28;20088;-84
2022/07/09 00:05:16;;;;;;;18.55;5.75;;;15.80;99.90;;;;;;5088860;28;20124;-84
2022/07/09 00:07:41;;;;;;;11.98;6.28;;;15.70;99.90;;;;;;5057371;28;20045;-84
2022/07/09 00:10:08;;;;;;;11.98;5.57;;;15.70;99.90;;;;;;5056088;28;20057;-84
2022/07/09 00:12:34;;;;;;;14.00;5.60;;;15.70;99.90;;;;;;5088841;28;20519;-84
2022/07/09 00:14:59;;;;;;;25.33;7.88;;;15.70;99.90;;;;;;5089260;28;20052;-84
2022/07/09 00:17:29;;;;;;;17.48;6.00;;;15.70;99.90;;;;;;5037748;28;20041;-84
2022/07/09 00:19:56;;;;;;;17.42;7.07;;;15.70;99.90;;;;;;5089164;28;20041;-84
2022/07/09 00:22:22;;;;;;;11.82;5.55;;;15.70;99.90;;;;;;5073666;28;20045;-84
2022/07/09 00:24:48;;;;;;;19.73;5.95;;;15.60;99.90;;;;;;5068147;28;20041;-84
2022/07/09 00:27:13;;;;;;;15.25;5.72;;;15.60;99.90;;;;;;5082520;28;20043;-84
2022/07/09 00:29:39;;;;;;;15.68;6.20;;;15.60;99.90;;;;;;5055537;28;20124;-84
2022/07/09 00:32:05;;;;;;;12.73;5.75;;;15.60;99.90;;;;;;5072288;28;20048;-84
2022/07/09 00:34:32;;;;;;;12.90;5.43;;;15.60;99.90;;;;;;5088717;28;20124;-84
2022/07/09 00:36:57;;;;;;;15.23;6.15;;;15.60;99.90;;;;;;5088280;28;20037;-83
2022/07/09 00:39:26;;;;;;;18.55;5.65;;;15.60;99.90;;;;;;5055631;28;20048;-83
2022/07/09 00:42:08;;;;;;;13.30;6.15;;;15.60;99.90;;;;;;5055493;28;20037;-83
2022/07/09 00:44:34;;;;;;;16.95;6.43;;;15.70;99.90;;;;;;5087294;28;20123;-83
2022/07/09 00:47:01;;;;;;;15.18;6.97;;;15.60;99.90;;;;;;5088914;28;20040;-83
2022/07/09 00:49:29;;;;;;;15.40;6.38;;;15.70;99.90;;;;;;5055217;28;20132;-84
2022/07/09 00:51:56;;;;;;;22.35;6.80;;;15.70;99.90;;;;;;5055528;28;20102;-84
2022/07/09 00:54:23;;;;;;;18.20;7.10;;;15.70;99.90;;;;;;5088068;28;20041;-84
2022/07/09 00:56:50;;;;;;;16.52;6.97;;;15.70;99.90;;;;;;5071398;28;20477;-84
2022/07/09 00:59:20;;;;;;;16.77;6.45;;;15.70;99.90;;;;;;5087035;28;20052;-84
2022/07/09 01:01:45;;;;;;;21.75;6.95;;;15.70;99.90;;;;;;5056058;28;20037;-83
2022/07/09 01:04:11;;;;;;;17.25;6.80;;;15.70;99.90;;;;;;5087823;28;20051;-84
2022/07/09 01:06:37;;;;;;;20.67;6.65;;;15.70;99.90;;;;;;5055196;28;20033;-84
2022/07/09 01:09:03;;;;;;;22.40;7.53;;;15.80;99.90;;;;;;5054782;28;20484;-84
2022/07/09 01:11:30;;;;;;;19.55;8.18;;;15.80;99.90;;;;;;5088514;28;20051;-84
2022/07/09 01:13:58;;;;;;;17.42;7.75;;;15.80;99.90;;;;;;5086703;28;20056;-84
2022/07/09 01:16:31;;;;;;;21.17;9.45;;;15.80;99.90;;;;;;5038041;28;20087;-84
2022/07/09 01:18:57;;;;;;;24.00;10.40;;;15.90;99.90;;;;;;5053713;28;20049;-83
2022/07/09 01:21:23;;;;;;;20.25;8.65;;;15.90;99.90;;;;;;5071693;28;20550;-83
2022/07/09 01:23:51;;;;;;;27.58;9.05;;;15.90;99.90;;;;;;5045181;28;20456;-83
2022/07/09 01:26:20;;;;;;;25.02;9.75;;;15.90;99.90;;;;;;5033618;28;20076;-84
2022/07/09 01:28:47;;;;;;;24.42;9.52;;;15.90;99.90;;;;;;5055005;28;20040;-84
2022/07/09 01:31:13;;;;;;;23.63;9.07;;;15.90;99.90;;;;;;5087388;28;20056;-84
2022/07/09 01:33:39;;;;;;;27.35;9.90;;;15.90;99.90;;;;;;5070059;28;20053;-84
2022/07/09 01:36:06;;;;;;;20.95;8.73;;;16.00;99.90;;;;;;5055154;28;20079;-84
2022/07/09 01:38:32;;;;;;;21.65;8.77;;;16.00;99.90;;;;;;5054621;28;20049;-84
2022/07/09 01:40:58;;;;;;;17.73;8.40;;;15.90;99.90;;;;;;5054148;28;20105;-85
2022/07/09 01:43:24;;;;;;;19.00;8.55;;;15.90;99.90;;;;;;5055365;28;20072;-84
2022/07/09 01:45:49;;;;;;;19.48;9.48;;;16.00;99.90;;;;;;5054675;28;20049;-85
2022/07/09 01:48:15;;;;;;;24.08;8.93;;;15.90;99.90;;;;;;5052551;28;20045;-83
2022/07/09 01:50:41;;;;;;;20.45;8.32;;;15.90;99.90;;;;;;5054851;28;20401;-84
2022/07/09 01:53:07;;;;;;;17.50;8.90;;;15.90;99.90;;;;;;5053795;28;20385;-84
2022/07/09 01:55:33;;;;;;;19.65;8.43;;;15.90;99.90;;;;;;5058068;28;20053;-84
2022/07/09 01:57:59;;;;;;;21.30;8.05;;;15.90;99.90;;;;;;5067033;28;20041;-85
2022/07/09 02:00:27;;;;;;;14.32;9.02;;;15.90;99.90;;;;;;5044638;28;20134;-84
2022/07/09 02:02:54;;;;;;;22.75;9.48;;;15.90;99.90;;;;;;5054102;28;20036;-85
2022/07/09 02:05:20;;;;;;;23.10;8.38;;;15.90;99.90;;;;;;5053945;28;20080;-84
2022/07/09 02:07:46;;;;;;;18.35;7.25;;;15.90;99.90;;;;;;5069976;28;20045;-84
2022/07/09 02:10:12;;;;;;;17.70;8.07;;;15.90;99.90;;;;;;5052151;28;20068;-84
2022/07/09 02:12:38;;;;;;;13.93;8.32;;;15.90;99.90;;;;;;5086935;28;20150;-84
2022/07/09 02:15:06;;;;;;;20.08;7.72;;;15.90;99.90;;;;;;5051690;28;20044;-84
2022/07/09 02:17:32;;;;;;;16.50;8.13;;;15.90;99.90;;;;;;5087183;28;20397;-84
2022/07/09 02:19:58;;;;;;;17.63;8.13;;;15.90;99.90;;;;;;5032561;28;20045;-84
2022/07/09 02:22:24;;;;;;;15.50;7.57;;;15.90;99.90;;;;;;5065950;28;20370;-84
2022/07/09 02:24:50;;;;;;;19.60;8.18;;;15.90;99.90;;;;;;5049294;28;20451;-84
2022/07/09 02:27:15;;;;;;;15.80;7.95;;;15.80;99.90;;;;;;5086912;28;20040;-84
2022/07/09 02:29:41;;;;;;;15.27;7.50;;;15.90;99.90;;;;;;5081534;28;20045;-85
2022/07/09 02:32:10;;;;;;;16.17;7.47;;;15.80;99.90;;;;;;5053149;28;20033;-85
2022/07/09 02:34:37;;;;;;;16.90;6.53;;;15.80;99.90;;;;;;5069485;28;20399;-84
2022/07/09 02:37:04;;;;;;;18.33;6.88;;;15.80;99.90;;;;;;5069103;28;20052;-84
2022/07/09 02:39:29;;;;;;;14.30;6.35;;;15.80;99.90;;;;;;5052471;28;20049;-84
2022/07/09 02:41:55;;;;;;;18.75;6.45;;;15.80;99.90;;;;;;5086693;28;20049;-84
2022/07/09 02:44:21;;;;;;;17.95;7.47;;;15.80;99.90;;;;;;5085053;28;20113;-84
2022/07/09 02:46:47;;;;;;;19.23;7.95;;;15.80;99.90;;;;;;5086133;28;20056;-84
2022/07/09 02:49:12;;;;;;;12.43;6.68;;;15.80;99.90;;;;;;5068857;28;20142;-84
2022/07/09 02:51:38;;;;;;;11.80;6.13;;;15.90;99.90;;;;;;5085748;28;20040;-84
2022/07/09 02:54:04;;;;;;;11.98;6.22;;;15.90;99.90;;;;;;5076352;28;20052;-84
2022/07/09 02:56:30;;;;;;;17.98;7.43;;;15.90;99.90;;;;;;5034109;28;20041;-84
2022/07/09 02:58:56;;;;;;;14.35;6.53;;;15.90;99.90;;;;;;5032670;28;20041;-84
2022/07/09 03:01:22;;;;;;;13.63;7.25;;;15.90;99.90;;;;;;5034114;28;20507;-84
2022/07/09 03:03:48;;;;;;;13.25;5.97;;;16.00;99.90;;;;;;5043168;28;20060;-84
2022/07/09 03:06:13;;;;;;;12.05;5.80;;;15.90;99.90;;;;;;5085461;28;20052;-84
2022/07/09 03:08:40;;;;;;;15.10;7.05;;;15.90;99.90;;;;;;5085181;28;20052;-84
2022/07/09 03:11:06;;;;;;;12.75;6.70;;;15.90;99.90;;;;;;5053891;28;20045;-84
2022/07/09 03:13:33;;;;;;;14.38;7.10;;;15.90;99.90;;;;;;5084529;28;20049;-84
2022/07/09 03:15:59;;;;;;;11.38;5.93;;;15.90;99.90;;;;;;5052630;28;20041;-84
2022/07/09 03:18:24;;;;;;;15.45;6.43;;;15.90;99.90;;;;;;5046715;28;20044;-84
2022/07/09 03:20:50;;;;;;;18.27;5.90;;;15.80;99.90;;;;;;5065843;28;20059;-83
2022/07/09 03:23:16;;;;;;;14.98;5.97;;;15.80;99.90;;;;;;5044114;28;20489;-83
2022/07/09 03:25:42;;;;;;;12.65;5.85;;;15.80;99.90;;;;;;5048009;28;20047;-83
2022/07/09 03:28:09;;;;;;;12.23;5.47;;;15.80;99.90;;;;;;5051941;28;20456;-83
2022/07/09 03:30:38;;;;;;;10.48;5.55;;;15.80;99.90;;;;;;5085225;28;20045;-84
2022/07/09 03:33:03;;;;;;;9.35;6.03;;;15.80;99.90;;;;;;5084261;28;20060;-84
2022/07/09 03:35:29;;;;;;;11.45;5.28;;;15.70;99.90;;;;;;5053652;28;20041;-84
2022/07/09 03:37:55;;;;;;;13.13;5.75;;;15.70;99.90;;;;;;5085015;28;20509;-84
2022/07/09 03:40:21;;;;;;;12.77;5.35;;;15.70;99.90;;;;;;5084804;28;20080;-84
2022/07/09 03:42:47;;;;;;;17.02;5.88;;;15.70;99.90;;;;;;5051733;28;20049;-84
2022/07/09 03:45:12;;;;;;;13.85;5.85;;;15.80;99.90;;;;;;5068649;28;20045;-84
2022/07/09 03:47:38;;;;;;;12.60;5.50;;;15.80;99.90;;;;;;5084328;28;20128;-83
2022/07/09 03:50:05;;;;;;;15.07;5.47;;;15.70;99.90;;;;;;5053348;28;20044;-83
2022/07/09 03:52:30;;;;;;;10.85;5.47;;;15.70;99.90;;;;;;5068515;28;20052;-83
2022/07/09 03:54:56;;;;;;;17.42;6.00;;;15.70;99.90;;;;;;5050648;28;20424;-83
2022/07/09 03:57:22;;;;;;;9.75;5.38;;;15.70;99.90;;;;;;5085563;28;20044;-83
2022/07/09 03:59:48;;;;;;;16.35;6.32;;;15.70;99.90;;;;;;5051262;28;20044;-84
2022/07/09 04:02:13;;;;;;;12.57;5.13;;;15.70;99.90;;;;;;5084532;28;20052;-83
2022/07/09 04:04:39;;;;;;;12.50;5.35;;;15.70;99.90;;;;;;5052122;28;20073;-83
2022/07/09 04:07:05;;;;;;;10.35;5.10;;;15.70;99.90;;;;;;5068235;28;20064;-83
2022/07/09 04:09:31;;;;;;;13.18;5.60;;;15.70;99.90;;;;;;5050997;28;20049;-83
2022/07/09 04:11:56;;;;;;;15.40;5.93;;;15.70;99.90;;;;;;5053434;28;20040;-83
2022/07/09 04:14:22;;;;;;;14.27;6.00;;;15.70;99.90;;;;;;5085153;28;20077;-83
2022/07/09 04:16:48;;;;;;;12.82;6.03;;;15.70;99.90;;;;;;5048917;28;20136;-83
2022/07/09 04:19:14;;;;;;;11.15;5.45;;;15.80;99.90;;;;;;5072091;28;20044;-83
2022/07/09 04:21:40;;;;;;;13.93;6.22;;;15.80;99.90;;;;;;5050890;28;20044;-84
2022/07/09 04:24:05;;;;;;;12.90;6.55;;;15.80;99.90;;;;;;5084306;28;20041;-84
2022/07/09 04:26:31;;;;;;;13.27;5.88;;;15.80;99.90;;;;;;5084791;28;20045;-83
2022/07/09 04:28:57;;;;;;;16.17;6.18;;;15.80;99.90;;;;;;5084338;28;20061;-83
2022/07/09 04:31:23;;;;;;;13.07;6.13;;;15.80;99.90;;;;;;5084660;28;20719;-84
2022/07/09 04:33:49;;;;;;;13.95;6.75;;;15.80;99.90;;;;;;5052756;28;20048;-83
2022/07/09 04:36:15;;;;;;;15.10;7.30;;;15.80;99.90;;;;;;5084214;28;20382;-83
2022/07/09 04:38:41;;;;;;;17.10;6.70;;;15.80;99.90;;;;;;5088923;28;20045;-83
2022/07/09 04:41:06;;;;;;;15.40;6.13;;;15.90;99.90;;;;;;5071454;28;20037;-84
2022/07/09 04:43:32;;;;;;;12.20;5.55;;;15.90;99.90;;;;;;5054999;28;20037;-84
2022/07/09 04:45:59;;;;;;;17.40;6.55;;;15.90;99.90;;;;;;5054841;28;20082;-83
2022/07/09 04:48:25;;;;;;;15.93;7.05;;;15.90;99.90;;;;;;5088729;28;20049;-83
2022/07/09 04:50:51;;;;;;;14.50;6.95;;;15.90;99.90;;;;;;5087366;28;20045;-83
2022/07/09 04:53:17;;;;;;;12.77;7.40;;;15.90;99.90;;;;;;5088491;28;20518;-83
2022/07/09 04:55:42;;;;;;;11.98;6.50;;;16.00;99.90;;;;;;5054987;28;20052;-83
2022/07/09 04:58:08;;;;;;;13.75;7.28;;;16.00;99.90;;;;;;5070369;28;20045;-84
2022/07/09 05:00:34;;;;;;;14.63;6.15;;;16.00;99.90;;;;;;5054550;28;20045;-83
2022/07/09 05:03:00;;;;;;;12.55;6.50;;;16.00;99.90;;;;;;5075649;28;20041;-84
2022/07/09 05:05:26;;;;;;;14.30;6.65;;;16.10;99.90;;;;;;5087887;28;20127;-84
2022/07/09 05:07:52;;;;;;;13.27;6.95;;;16.10;99.90;;;;;;5037067;28;20037;-83
2022/07/09 05:10:19;;;;;;;14.98;7.18;;;16.10;99.90;;;;;;5067826;28;20144;-84
2022/07/09 05:12:45;;;;;;;9.68;6.00;;;16.20;99.90;;;;;;5084671;28;20080;-84
2022/07/09 05:15:11;;;;;;;12.20;5.82;;;16.20;99.90;;;;;;5070714;28;20515;-84
2022/07/09 05:17:38;;;;;;;9.23;5.47;;;16.30;99.90;;;;;;5054782;28;20045;-83
2022/07/09 05:20:05;;;;;;;15.73;5.70;;;16.30;99.90;;;;;;5053482;28;20111;-83
2022/07/09 05:22:32;;;;;;;8.73;4.95;;;16.40;99.90;;;;;;5088544;28;20045;-85
2022/07/09 05:24:58;;;;;;;10.95;5.68;;;16.50;99.90;;;;;;5084954;28;20622;-86
2022/07/09 05:27:24;;;;;;;8.00;5.47;;;16.50;99.90;;;;;;5058034;28;20086;-84
2022/07/09 05:29:50;;;;;;;14.23;5.50;;;16.60;99.90;;;;;;5073648;28;20515;-85
2022/07/09 05:32:16;;;;;;;11.52;5.82;;;16.60;99.90;;;;;;5066500;28;20045;-85
2022/07/09 05:34:42;;;;;;;10.15;5.22;;;16.60;99.90;;;;;;5053636;28;20111;-83
2022/07/09 05:37:08;;;;;;;7.72;4.68;;;16.60;99.90;;;;;;5060725;28;20090;-83
2022/07/09 05:39:34;;;;;;;12.63;4.57;;;16.70;99.90;;;;;;5060775;28;20049;-83
2022/07/09 05:42:00;;;;;;;10.80;5.43;;;16.80;99.90;;;;;;5055607;28;20037;-83
2022/07/09 05:44:26;;;;;;;8.18;4.38;;;16.70;99.90;;;;;;5087271;28;20060;-83
2022/07/09 05:46:52;;;;;;;9.20;4.22;;;16.80;99.90;;;;;;5056425;28;20095;-83
2022/07/09 05:49:18;;;;;;;11.77;4.28;;;16.80;99.90;;;;;;5058940;28;20050;-83
2022/07/09 05:51:43;;;;;;;8.75;4.07;;;16.80;99.90;;;;;;5063030;28;20055;-84
2022/07/09 05:54:09;;;;;;;11.20;3.78;;;16.80;99.90;;;;;;5047745;28;20040;-84
2022/07/09 05:56:36;;;;;;;14.25;4.50;;;16.90;99.90;;;;;;5064665;28;20485;-84
2022/07/09 05:59:03;;;;;;;8.95;4.10;;;16.90;99.90;;;;;;5054899;28;20053;-85
2022/07/09 06:01:29;;;;;;;9.23;4.13;;;16.90;99.90;;;;;;5053626;28;20060;-83
2022/07/09 06:03:55;;;;;;;8.07;4.10;;;16.90;99.90;;;;;;5069633;28;20041;-82
2022/07/09 06:06:21;;;;;;;9.27;4.40;;;17.00;99.90;;;;;;5055034;28;20052;-83
2022/07/09 06:08:46;;;;;;;19.60;6.93;;;17.00;99.90;;;;;;5052952;28;20064;-83
2022/07/09 06:11:12;;;;;;;11.75;3.70;;;17.00;99.90;;;;;;5066954;28;20053;-83
2022/07/09 06:13:38;;;;;;;7.63;3.97;;;17.10;99.90;;;;;;5035116;28;20053;-83
2022/07/09 06:16:04;;;;;;;8.27;3.80;;;17.10;99.90;;;;;;5066178;28;20042;-83
2022/07/09 06:18:30;;;;;;;8.30;4.03;;;17.20;99.90;;;;;;5033599;28;20041;-84
2022/07/09 06:20:56;;;;;;;9.48;3.47;;;17.20;99.90;;;;;;5078506;28;20056;-83
2022/07/09 06:23:21;;;;;;;6.88;4.32;;;17.20;99.90;;;;;;5053726;28;20033;-83
2022/07/09 06:25:47;;;;;;;7.07;3.50;;;17.20;99.90;;;;;;5053241;28;20051;-83
2022/07/09 06:28:13;;;;;;;8.68;3.63;;;17.30;99.90;;;;;;5085916;28;20510;-83
2022/07/09 06:30:39;;;;;;;6.32;3.25;;;17.30;99.90;;;;;;5086257;28;20523;-83
2022/07/09 06:33:08;;;;;;;7.82;3.40;;;17.30;99.90;;;;;;5074207;28;20077;-84
2022/07/09 06:35:33;;;;;;;7.47;3.88;;;17.40;99.90;;;;;;5077618;28;20049;-83
2022/07/09 06:38:00;;;;;;;9.02;3.33;;;17.40;99.90;;;;;;5054296;28;20123;-84
2022/07/09 06:40:26;;;;;;;6.97;3.17;;;17.40;99.90;;;;;;5085165;28;20056;-84
2022/07/09 06:42:52;;;;;;;6.40;3.00;;;17.40;99.90;;;;;;5038353;28;20045;-84
2022/07/09 06:45:18;;;;;;;9.20;2.90;;;17.40;99.90;;;;;;5053746;28;20098;-83
2022/07/09 06:47:45;;;;;;;11.43;3.03;;;17.50;99.90;;;;;;5086083;28;20124;-82
2022/07/09 06:50:11;;;;;;;10.07;3.08;;;17.50;99.90;;;;;;5046331;28;20128;-83
2022/07/09 06:52:36;;;;;;;9.10;2.83;;;17.50;99.90;;;;;;5041429;28;20179;-84
2022/07/09 06:55:03;;;;;;;11.65;3.83;;;17.60;99.90;;;;;;5087037;28;20045;-84
2022/07/09 06:57:30;;;;;;;8.85;2.72;;;17.60;99.90;;;;;;5052690;28;20044;-84
2022/07/09 06:59:56;;;;;;;8.43;2.70;;;17.60;99.90;;;;;;5066080;28;20129;-83
2022/07/09 07:02:22;;;;;;;6.95;2.83;;;17.70;99.90;;;;;;5081886;28;20041;-82
2022/07/09 07:04:47;;;;;;;9.05;3.13;;;17.70;99.90;;;;;;5054165;28;20041;-83
2022/07/09 07:07:13;;;;;;;6.78;2.80;;;17.70;99.90;;;;;;5086293;28;20484;-83
2022/07/09 07:09:39;;;;;;;8.20;2.45;;;17.80;99.90;;;;;;5053037;28;20401;-82
2022/07/09 07:12:05;;;;;;;6.05;3.20;;;17.80;99.90;;;;;;5068335;28;20079;-81
2022/07/09 07:14:31;;;;;;;6.38;2.53;;;17.80;99.90;;;;;;5087775;28;20049;-82
2022/07/09 07:16:57;;;;;;;4.32;2.50;;;17.80;99.90;;;;;;5038345;28;20378;-83
2022/07/09 07:19:23;;;;;;;6.43;2.20;;;17.80;99.90;;;;;;5044578;28;20400;-84
2022/07/09 07:21:49;;;;;;;10.70;2.47;;;17.80;99.90;;;;;;5086196;28;20049;-81
2022/07/09 07:24:15;;;;;;;4.40;2.15;;;17.80;99.90;;;;;;5060297;28;20036;-84
2022/07/09 07:26:41;;;;;;;6.75;1.80;;;17.90;99.90;;;;;;5051765;28;20044;-85
2022/07/09 07:29:07;;;;;;;5.43;1.60;;;17.90;99.90;;;;;;5041302;28;20037;-84
2022/07/09 07:31:33;;;;;;;5.10;1.98;;;17.90;99.90;;;;;;5032989;28;20067;-85
2022/07/09 07:34:02;;;;;;;8.45;2.35;;;18.00;99.90;;;;;;5048514;28;20508;-88
2022/07/09 07:36:29;;;;;;;6.43;1.77;;;18.00;99.90;;;;;;5085597;28;20045;-84
2022/07/09 07:38:54;;;;;;;9.00;2.33;;;18.10;99.90;;;;;;5084210;28;20045;-84
2022/07/09 07:41:21;;;;;;;7.57;2.28;;;18.10;99.90;;;;;;5053877;28;20064;-85
2022/07/09 07:43:47;;;;;;;4.70;1.65;;;18.20;99.90;;;;;;5053027;28;20041;-86
2022/07/09 07:46:14;;;;;;;5.05;1.95;;;18.20;99.90;;;;;;5085197;28;20135;-86
2022/07/09 07:48:42;;;;;;;5.07;1.60;;;18.20;99.90;;;;;;5086516;28;20178;-86
2022/07/09 07:51:08;;;;;;;6.40;1.80;;;18.30;99.90;;;;;;5051812;28;20455;-86
2022/07/09 07:53:35;;;;;;;4.63;1.20;;;18.50;99.90;;;;;;5067217;28;20060;-85
2022/07/09 07:56:04;;;;;;;5.53;1.45;;;18.70;99.90;;;;;;5060239;28;20099;-86
2022/07/09 07:58:30;;;;;;;5.63;1.27;;;18.80;99.90;;;;;;5085632;28;20041;-88
2022/07/09 08:00:56;;;;;;;8.07;1.58;;;19.00;99.90;;;;;;5051887;28;20037;-85
2022/07/09 08:03:22;;;;;;;3.15;1.10;;;19.20;99.90;;;;;;5086200;28;20103;-84
2022/07/09 08:05:48;;;;;;;4.35;1.27;;;19.30;99.90;;;;;;5052210;28;20083;-87
2022/07/09 08:08:14;;;;;;;3.67;1.25;;;19.40;99.90;;;;;;5084608;28;20033;-86
2022/07/09 08:10:40;;;;;;;4.72;1.15;;;19.40;99.90;;;;;;5035491;28;20137;-87
2022/07/09 08:13:05;;;;;;;5.10;1.35;;;19.40;99.90;;;;;;5055143;28;20095;-84
2022/07/09 08:15:31;;;;;;;11.30;1.58;;;19.40;99.90;;;;;;5088700;28;20080;-86
2022/07/09 08:17:57;;;;;;;5.72;1.60;;;19.50;99.90;;;;;;5058046;28;20048;-85
2022/07/09 08:20:24;;;;;;;5.63;1.50;;;19.60;99.90;;;;;;5088746;28;20044;-83
2022/07/09 08:22:50;;;;;;;5.05;1.25;;;19.70;99.90;;;;;;5054568;28;20033;-85
2022/07/09 08:25:16;;;;;;;7.32;1.75;;;19.60;99.90;;;;;;5057191;28;20052;-87
2022/07/09 08:27:41;;;;;;;7.82;1.65;;;19.50;99.90;;;;;;5086583;28;20393;-85
2022/07/09 08:30:07;;;;;;;6.53;1.35;;;19.50;99.90;;;;;;5088514;28;20393;-84
2022/07/09 08:32:33;;;;;;;6.65;1.60;;;19.50;99.90;;;;;;5056160;28;20045;-85
2022/07/09 08:34:59;;;;;;;6.00;1.52;;;19.50;99.90;;;;;;5069715;28;20083;-87
2022/07/09 08:37:28;;;;;;;4.32;1.50;;;19.60;99.90;;;;;;5045034;28;20438;-85
2022/07/09 08:39:53;;;;;;;4.43;1.50;;;19.70;99.90;;;;;;5055752;28;20135;-85
2022/07/09 08:42:19;;;;;;;7.07;1.60;;;19.70;99.90;;;;;;5055789;28;20079;-88
2022/07/09 08:44:47;;;;;;;5.55;1.70;;;19.70;99.90;;;;;;5071342;28;20135;-84
2022/07/09 08:47:15;;;;;;;6.45;1.63;;;19.60;99.90;;;;;;5089732;28;20041;-87
2022/07/09 08:49:42;;;;;;;6.85;1.13;;;19.60;99.90;;;;;;5055857;28;20134;-88
2022/07/09 08:52:08;;;;;;;7.85;1.95;;;19.60;99.90;;;;;;5056249;28;20400;-88
2022/07/09 08:54:53;;;;;;;6.38;1.55;;;19.50;99.90;;;;;;5071945;28;20049;-87
2022/07/09 08:57:22;;;;;;;12.00;1.73;;;18.60;99.90;;;;;;5039178;28;20045;-88
2022/07/09 08:59:48;;;;;;;8.50;1.70;;;19.60;99.90;;;;;;5056466;28;20094;-86
2022/07/09 09:02:13;;;;;;;7.38;1.27;;;19.70;99.90;;;;;;5088203;28;20183;-90
2022/07/09 09:04:42;;;;;;;3.50;1.08;;;19.80;99.90;;;;;;5088270;28;20138;-88
2022/07/09 09:07:12;;;;;;;8.18;1.50;;;19.90;99.90;;;;;;5057424;28;20052;-88
2022/07/09 09:09:38;;;;;;;8.00;1.27;;;19.90;99.90;;;;;;5071604;28;20509;-87
2022/07/09 09:12:04;;;;;;;5.93;1.20;;;19.90;99.90;;;;;;5040865;28;20052;-88
2022/07/09 09:14:31;;;;;;;4.22;0.98;;;19.90;99.90;;;;;;5034825;28;20496;-87
2022/07/09 09:17:11;;;;;;;7.18;1.40;;;19.90;99.90;;;;;;5070200;28;20053;-90
2022/07/09 09:19:40;;;;;;;7.95;1.30;;;19.70;99.90;;;;;;5035142;28;20099;-88
2022/07/09 09:22:07;;;;;;;4.20;1.25;;;19.70;99.90;;;;;;5049181;28;20051;-88
2022/07/09 09:24:34;;;;;;;5.20;1.60;;;19.70;99.90;;;;;;5087473;28;20365;-85
2022/07/09 09:27:03;;;;;;;4.40;1.20;;;19.80;99.90;;;;;;5065801;28;20393;-89
2022/07/09 09:29:29;;;;;;;3.50;1.70;;;19.90;99.90;;;;;;5053014;28;20041;-88
2022/07/09 09:31:55;;;;;;;8.18;2.25;;;19.90;99.90;;;;;;5053988;28;20061;-84
2022/07/09 09:34:22;;;;;;;4.75;1.00;;;19.90;99.90;;;;;;5087670;28;20106;-88
2022/07/09 09:36:51;;;;;;;5.90;1.40;;;19.90;99.90;;;;;;5055535;28;20045;-86
2022/07/09 09:39:29;;;;;;;5.22;0.80;;;19.90;99.90;;;;;;5068348;28;20068;-87
2022/07/09 09:41:57;;;;;;;3.13;0.93;;;19.90;99.90;;;;;;5054946;28;20045;-90
2022/07/09 09:44:32;;;;;;;5.95;1.20;;;19.80;99.90;;;;;;5054330;28;20033;-88
2022/07/09 09:46:58;;;;;;;5.63;1.15;;;19.90;99.90;;;;;;5054506;28;20053;-88
2022/07/09 09:49:25;;;;;;;8.15;1.10;;;19.90;99.90;;;;;;5053454;28;20503;-88
2022/07/09 09:52:10;;;;;;;3.50;0.98;;;19.90;99.90;;;;;;5063755;28;20041;-92
2022/07/09 09:54:38;;;;;;;10.18;2.08;;;20.00;99.90;;;;;;5053890;28;20045;-88
2022/07/09 09:57:16;;;;;;;9.27;1.25;;;20.00;99.90;;;;;;5070630;28;20048;-88
2022/07/09 09:59:47;;;;;;;8.65;1.65;;;20.10;99.90;;;;;;5055230;28;20086;-89
2022/07/09 10:02:13;;;;;;;6.13;1.45;;;20.10;99.90;;;;;;5043740;28;20053;-87
2022/07/09 10:04:41;;;;;;;9.00;1.30;;;20.10;99.90;;;;;;5054004;28;20055;-90
2022/07/09 10:07:10;;;;;;;5.95;1.55;;;20.10;99.90;;;;;;5050004;28;20397;-90
2022/07/09 10:09:39;;;;;;;11.35;2.00;;;20.10;99.90;;;;;;5034013;28;20057;-90
2022/07/09 10:12:05;;;;;;;7.50;1.42;;;20.00;99.90;;;;;;5034111;28;20106;-89
2022/07/09 10:14:36;;;;;;;6.78;1.42;;;19.90;99.90;;;;;;5034404;28;20132;-88
2022/07/09 10:17:11;;;;;;;6.95;1.63;;;19.90;99.90;;;;;;5033810;28;20106;-88
2022/07/09 10:19:37;;;;;;;6.20;1.30;;;20.00;99.90;;;;;;5053687;28;20045;-86
2022/07/09 10:22:03;;;;;;;8.57;1.65;;;20.00;99.90;;;;;;5069847;28;20043;-87
2022/07/09 10:24:31;;;;;;;5.78;1.50;;;20.00;99.90;;;;;;5063512;28;20049;-89
2022/07/09 10:27:10;;;;;;;6.43;1.20;;;20.20;99.90;;;;;;5042799;28;20043;-90
2022/07/09 10:29:50;;;;;;;3.92;1.48;;;20.30;99.90;;;;;;5052963;28;20053;-88
2022/07/09 10:32:30;;;;;;;7.05;1.70;;;20.30;99.90;;;;;;5053924;28;20045;-91
2022/07/09 10:35:01;;;;;;;5.20;1.40;;;20.20;99.90;;;;;;5035715;28;20116;-88
2022/07/09 10:37:43;;;;;;;5.75;1.23;;;20.00;99.90;;;;;;5037123;28;20049;-91
2022/07/09 10:40:10;;;;;;;5.70;1.63;;;19.70;99.90;;;;;;5053569;28;20045;-89
2022/07/09 10:42:36;;;;;;;6.70;1.40;;;19.30;99.90;;;;;;5036942;28;20608;-89
2022/07/09 10:45:04;;;;;;;7.82;1.40;;;19.00;99.90;;;;;;5019853;28;20076;-88
2022/07/09 10:47:38;;;;;;;10.15;2.38;;;18.60;99.90;;;;;;5036887;28;20041;-86
2022/07/09 10:50:05;;;;;;;9.30;1.55;;;18.20;99.90;;;;;;5035525;28;20045;-88
2022/07/09 10:52:31;;;;;;;8.75;2.28;;;17.80;99.90;;;;;;5020555;28;20374;-88
2022/07/09 10:54:57;;;;;;;4.95;1.60;;;17.60;99.90;;;;;;5046121;28;20519;-87
2022/07/09 10:57:29;;;;;;;9.60;2.15;;;17.40;99.90;;;;;;5078482;28;20072;-88
2022/07/09 11:00:01;;;;;;;10.20;2.20;;;17.40;99.90;;;;;;5073695;28;20040;-87
2022/07/09 11:02:50;;;;;;;10.50;2.00;;;17.40;99.90;;;;;;5086690;28;20409;-87
2022/07/09 11:05:15;;;;;;;9.98;1.75;;;17.60;99.90;;;;;;5058259;28;20037;-88
2022/07/09 11:08:04;;;;;;;11.93;2.20;;;17.60;99.90;;;;;;5064861;28;20047;-88
2022/07/09 11:10:31;;;;;;;8.55;1.90;;;17.80;99.90;;;;;;5085734;28;20049;-85
2022/07/09 11:12:59;;;;;;;3.95;1.20;;;17.90;99.90;;;;;;5068842;28;20076;-90
2022/07/09 11:15:27;;;;;;;15.25;2.03;;;18.00;99.90;;;;;;5086029;28;20515;-83
2022/07/09 11:18:16;;;;;;;11.95;1.83;;;18.10;99.90;;;;;;5087322;28;20148;-87
2022/07/09 11:20:47;;;;;;;7.82;1.40;;;18.10;99.90;;;;;;5054081;28;20388;-86
2022/07/09 11:23:14;;;;;;;10.38;1.83;;;18.20;99.90;;;;;;5085760;28;20124;-84
2022/07/09 11:25:41;;;;;;;11.73;1.88;;;18.20;99.90;;;;;;5068767;28;20037;-86
2022/07/09 11:28:07;;;;;;;9.50;1.63;;;18.20;99.90;;;;;;5097104;28;20048;-87
2022/07/09 11:30:34;;;;;;;13.70;1.70;;;18.40;99.90;;;;;;5052515;28;20052;-87
2022/07/09 11:33:00;;;;;;;4.10;1.25;;;18.40;99.90;;;;;;5047422;28;20053;-86
2022/07/09 11:35:28;;;;;;;7.97;1.30;;;18.60;99.90;;;;;;5052472;28;20560;-89
2022/07/09 11:37:55;;;;;;;7.70;2.90;;;18.60;99.90;;;;;;5052233;28;20075;-91
2022/07/09 11:40:21;;;;;;;6.70;1.40;;;18.60;99.90;;;;;;5084511;28;20049;-87
2022/07/09 11:42:49;;;;;;;6.10;1.20;;;18.60;99.90;;;;;;5063838;28;20076;-84
2022/07/09 11:45:19;;;;;;;5.78;1.50;;;18.60;99.90;;;;;;5083817;28;20092;-88
2022/07/09 11:47:45;;;;;;;5.47;1.40;;;18.60;99.90;;;;;;5040825;28;20370;-86
2022/07/09 11:50:14;;;;;;;3.20;1.00;;;18.60;99.90;;;;;;5040736;28;20045;-86
2022/07/09 11:52:50;;;;;;;3.53;0.77;;;18.60;99.90;;;;;;5052403;28;20477;-84
2022/07/09 11:55:27;;;;;;;10.75;2.10;;;18.70;99.90;;;;;;5052359;28;20124;-85
2022/07/09 11:57:54;;;;;;;6.63;1.05;;;18.80;99.90;;;;;;5052231;28;20079;-89
2022/07/09 12:00:25;;;;;;;8.35;0.98;;;18.90;99.90;;;;;;5034793;28;20389;-88
2022/07/09 12:03:00;;;;;;;6.20;1.13;;;18.90;99.90;;;;;;5053229;28;20481;-87
2022/07/09 12:05:36;;;;;;;3.70;1.30;;;18.90;99.90;;;;;;5052137;28;20041;-88
2022/07/09 12:08:07;;;;;;;3.55;1.02;;;19.00;99.90;;;;;;5015553;28;20501;-90
2022/07/09 12:10:37;;;;;;;4.03;1.33;;;19.10;99.90;;;;;;5052285;28;20049;-90
2022/07/09 12:13:05;;;;;;;9.57;1.05;;;19.10;99.90;;;;;;5084255;28;20049;-88
2022/07/09 12:15:32;;;;;;;5.03;1.20;;;19.10;99.90;;;;;;5068906;28;20131;-85
2022/07/09 12:17:59;;;;;;;7.97;1.40;;;19.20;99.90;;;;;;5056803;28;20055;-87
2022/07/09 12:20:31;;;;;;;5.38;1.48;;;19.20;99.90;;;;;;5071007;28;20071;-87
2022/07/09 12:22:57;;;;;;;4.88;0.85;;;19.30;99.90;;;;;;5067546;28;20044;-88
2022/07/09 12:25:23;;;;;;;2.80;0.80;;;19.30;99.90;;;;;;5085017;28;20083;-87
2022/07/09 12:27:49;;;;;;;5.00;0.90;;;19.30;99.90;;;;;;5050363;28;20041;-87
2022/07/09 12:30:16;;;;;;;7.95;1.33;;;19.30;99.90;;;;;;5053043;28;20048;-87
2022/07/09 12:32:42;;;;;;;5.80;1.10;;;19.20;99.90;;;;;;5085275;28;20106;-83
2022/07/09 12:35:09;;;;;;;4.35;0.85;;;19.20;99.90;;;;;;5083920;28;20041;-88
2022/07/09 12:37:36;;;;;;;4.95;0.63;;;19.20;99.90;;;;;;5085259;28;20045;-87
2022/07/09 12:40:03;;;;;;;3.83;0.88;;;19.20;99.90;;;;;;5067971;28;20041;-86